Time;durP1;ratioP1;P1;durP2;ratioP2;P2;SDS_P1;SDS_P2;PMS_P1;PMS_P2;Temp;Humidity;BMP_temperature;BMP_pressure;BME280_temperature;BME280_humidity;BME280_pressure;Samples;Min_cycle;Max_cycle;Signal;HPM_P1;HPM_P2
2021/08/21 00:00:37;;;;;;;3.97;2.40;;;14.20;99.90;;;12.73;95.51;101498.13;2567535;30;138359;-44
2021/08/21 00:03:08;;;;;;;4.68;2.38;;;14.20;99.90;;;12.71;95.48;101500.22;2566169;30;138892;-41
2021/08/21 00:05:36;;;;;;;4.63;2.47;;;14.10;99.90;;;12.63;95.50;101489.47;2568230;30;138662;-42
2021/08/21 00:08:07;;;;;;;5.10;2.58;;;14.10;99.90;;;12.65;95.28;101493.72;2567099;30;137182;-42
2021/08/21 00:10:35;;;;;;;3.90;2.42;;;14.10;99.90;;;12.63;95.59;101495.81;2566649;30;139061;-41
2021/08/21 00:13:03;;;;;;;4.30;2.40;;;14.10;99.90;;;12.60;95.46;101496.25;2567293;30;137464;-41
2021/08/21 00:15:33;;;;;;;4.82;2.75;;;14.00;99.90;;;12.58;95.65;101492.84;2565074;30;137920;-41
2021/08/21 00:18:00;;;;;;;4.60;2.58;;;14.00;99.90;;;12.56;95.93;101488.66;2567364;30;137298;-41
2021/08/21 00:20:28;;;;;;;5.75;3.08;;;14.00;99.90;;;12.54;95.67;101496.22;2568216;30;139181;-41
2021/08/21 00:22:55;;;;;;;6.45;2.38;;;14.00;99.90;;;12.51;95.63;101490.13;2566937;30;136853;-41
2021/08/21 00:25:23;;;;;;;4.60;2.75;;;14.00;99.90;;;12.48;95.85;101485.06;2563748;30;139156;-41
2021/08/21 00:27:50;;;;;;;5.57;2.78;;;13.90;99.90;;;12.46;95.72;101492.63;2568096;30;136771;-41
2021/08/21 00:30:18;;;;;;;;;;;13.90;99.90;;;12.42;95.70;101494.09;2567587;30;138280;-41
2021/08/21 00:32:46;;;;;;;5.75;3.05;;;13.90;99.90;;;12.41;95.85;101491.59;2567660;30;137236;-42
2021/08/21 00:35:13;;;;;;;4.50;2.97;;;13.90;99.90;;;12.40;95.81;101495.38;2566602;30;137952;-41
2021/08/21 00:37:41;;;;;;;4.90;2.60;;;13.80;99.90;;;12.36;95.84;101494.94;2568596;30;136896;-42
2021/08/21 00:40:13;;;;;;;6.63;2.70;;;13.80;99.90;;;12.29;96.33;101499.56;2566536;30;140281;-42
2021/08/21 00:42:40;;;;;;;4.65;2.78;;;13.80;99.90;;;12.30;96.24;101493.88;2568961;30;138548;-42
2021/08/21 00:45:09;;;;;;;5.60;3.08;;;13.70;99.90;;;12.30;96.21;101495.78;2567061;30;140706;-41
2021/08/21 00:47:37;;;;;;;5.43;2.97;;;13.80;99.90;;;12.29;96.73;101500.38;2569171;30;137747;-42
2021/08/21 00:50:05;;;;;;;4.55;2.80;;;13.70;99.90;;;12.23;96.56;101499.34;2567805;30;138185;-41
2021/08/21 00:52:34;;;;;;;5.07;3.10;;;13.70;99.90;;;12.24;96.60;101497.44;2568081;30;137527;-39
2021/08/21 00:55:03;;;;;;;4.20;2.65;;;13.70;99.90;;;12.21;96.48;101492.38;2567357;30;140569;-41
2021/08/21 00:57:32;;;;;;;5.13;2.90;;;13.70;99.90;;;12.19;96.48;101489.00;2568849;30;138890;-41
2021/08/21 01:00:00;;;;;;;5.32;2.83;;;13.70;99.90;;;12.17;96.46;101488.38;2568318;30;140567;-41
2021/08/21 01:02:31;;;;;;;4.30;2.70;;;13.60;99.90;;;12.15;96.25;101496.78;2568391;30;138976;-41
2021/08/21 01:04:59;;;;;;;4.65;3.20;;;13.60;99.90;;;12.11;96.09;101489.22;2566515;30;138708;-41
2021/08/21 01:07:33;;;;;;;6.85;2.78;;;13.60;99.90;;;12.08;96.36;101496.78;2567787;30;137548;-41
2021/08/21 01:10:13;;;;;;;6.28;2.92;;;13.50;99.90;;;12.06;96.29;101495.28;2565336;30;139572;-41
2021/08/21 01:12:51;;;;;;;3.88;2.83;;;13.50;99.90;;;12.04;96.26;101503.69;2567738;30;138258;-41
2021/08/21 01:15:25;;;;;;;5.20;2.88;;;13.50;99.90;;;12.03;96.21;101496.53;2567268;30;139874;-41
2021/08/21 01:18:04;;;;;;;4.65;2.90;;;13.50;99.90;;;12.00;96.53;101494.19;2566650;30;138343;-40
2021/08/21 01:20:33;;;;;;;5.60;3.00;;;13.50;99.90;;;11.98;96.43;101495.44;2568262;30;138314;-43
2021/08/21 01:23:04;;;;;;;5.03;3.28;;;13.40;99.90;;;11.90;96.64;101488.28;2568032;30;138705;-41
2021/08/21 01:25:50;;;;;;;5.25;2.80;;;13.40;99.90;;;11.89;96.36;101492.06;2568137;30;137470;-44
2021/08/21 01:28:19;;;;;;;4.35;2.83;;;13.40;99.90;;;11.89;96.76;101500.25;2566943;30;139522;-42
2021/08/21 01:31:05;;;;;;;6.80;2.63;;;13.40;99.90;;;11.86;96.57;101500.66;2567430;30;138358;-41
2021/08/21 01:33:38;;;;;;;6.60;3.17;;;13.30;99.90;;;11.83;96.59;101501.91;2567837;30;138479;-41
2021/08/21 01:36:06;;;;;;;6.40;2.85;;;13.30;99.90;;;11.83;96.67;101499.19;2567679;30;138986;-41
2021/08/21 01:38:53;;;;;;;5.43;2.92;;;13.30;99.90;;;11.83;96.54;101496.44;2567889;30;138473;-43
2021/08/21 01:41:41;;;;;;;4.15;2.50;;;13.30;99.90;;;11.82;97.16;101494.75;2567776;30;137354;-41
2021/08/21 01:44:12;;;;;;;4.63;2.20;;;13.30;99.90;;;11.80;96.97;101491.38;2567356;30;138847;-41
2021/08/21 01:46:42;;;;;;;4.32;2.22;;;13.30;99.90;;;11.78;97.39;101496.22;2566387;30;139461;-41
2021/08/21 01:49:11;;;;;;;4.40;2.25;;;13.20;99.90;;;11.78;97.41;101488.00;2567864;30;137054;-41
2021/08/21 01:51:43;;;;;;;5.30;2.60;;;;;;;11.79;97.58;101490.53;2565381;30;139233;-41
2021/08/21 01:54:19;;;;;;;4.38;2.40;;;13.30;99.90;;;11.78;97.53;101488.00;2567714;30;138868;-41
2021/08/21 01:56:56;;;;;;;3.85;2.53;;;13.30;99.90;;;11.74;97.44;101475.81;2566431;30;140429;-41
2021/08/21 01:59:50;;;;;;;5.10;2.33;;;13.20;99.90;;;11.76;97.38;101481.91;2567304;30;137952;-41
2021/08/21 02:02:24;;;;;;;4.97;2.70;;;13.20;99.90;;;11.78;97.68;101477.91;2567957;30;140556;-43
2021/08/21 02:05:10;;;;;;;3.92;2.40;;;13.30;99.90;;;11.79;98.04;101482.31;2566282;30;137684;-43
2021/08/21 02:07:38;;;;;;;4.53;2.67;;;13.20;99.90;;;11.75;97.82;101478.31;2568067;30;139664;-41
2021/08/21 02:10:07;;;;;;;4.65;2.42;;;13.20;99.90;;;11.74;97.60;101476.63;2568321;30;137416;-45
2021/08/21 02:12:34;;;;;;;4.65;2.72;;;13.20;99.90;;;11.72;97.47;101477.91;2568054;30;137345;-41
2021/08/21 02:15:13;;;;;;;4.63;2.78;;;13.20;99.90;;;11.71;97.23;101474.31;2567893;30;138327;-42
2021/08/21 02:17:47;;;;;;;5.18;3.22;;;13.20;99.90;;;11.69;97.50;101473.69;2567467;30;137482;-41
2021/08/21 02:20:35;;;;;;;5.10;3.00;;;13.20;99.90;;;11.63;97.67;101469.88;2568168;30;137197;-42
2021/08/21 02:23:05;;;;;;;5.00;3.00;;;13.20;99.90;;;11.65;97.56;101481.44;2567434;30;140471;-41
2021/08/21 02:25:34;;;;;;;4.40;2.97;;;13.10;99.90;;;11.64;97.67;101477.00;2566420;30;138468;-41
2021/08/21 02:28:18;;;;;;;;;;;13.10;99.90;;;11.65;97.62;101481.44;2567200;30;138951;-41
2021/08/21 02:30:46;;;;;;;5.53;2.85;;;13.10;99.90;;;11.62;97.72;101472.81;2566741;30;137566;-42
2021/08/21 02:33:13;;;;;;;4.53;2.95;;;13.10;99.90;;;11.58;97.43;101475.09;2567444;30;138118;-41
2021/08/21 02:35:41;;;;;;;5.13;3.33;;;13.10;99.90;;;11.57;97.70;101478.88;2567825;30;138525;-41
2021/08/21 02:38:09;;;;;;;4.75;2.95;;;13.10;99.90;;;11.55;97.15;101467.31;2566211;30;138151;-41
2021/08/21 02:40:38;;;;;;;6.85;3.05;;;13.00;99.90;;;11.53;97.32;101469.41;2568114;30;137556;-41
2021/08/21 02:43:06;;;;;;;4.95;3.20;;;13.00;99.90;;;11.51;97.42;101471.50;2568337;30;140366;-41
2021/08/21 02:45:33;;;;;;;5.95;2.95;;;13.00;99.90;;;11.49;97.13;101470.88;2567766;30;136790;-41
2021/08/21 02:48:01;;;;;;;6.15;3.03;;;13.00;99.90;;;11.47;97.31;101468.31;2568911;30;138282;-41
2021/08/21 02:50:30;;;;;;;5.30;3.20;;;12.90;99.90;;;11.44;97.45;101465.19;2580088;30;137983;-39
2021/08/21 02:52:58;;;;;;;;;;;12.90;99.90;;;11.42;97.40;101464.53;2570276;30;137223;-39
2021/08/21 02:55:25;;;;;;;4.65;2.92;;;12.90;99.90;;;11.40;97.61;101462.00;2570056;30;138628;-39
2021/08/21 02:57:53;;;;;;;5.63;3.20;;;12.90;99.90;;;11.39;97.70;101467.66;2567950;30;140574;-40
2021/08/21 03:00:29;;;;;;;5.30;3.22;;;12.90;99.90;;;11.37;97.40;101462.41;2569952;30;139657;-39
2021/08/21 03:03:00;;;;;;;4.53;2.50;;;12.90;99.90;;;11.32;97.54;101456.72;2567696;30;137831;-39
2021/08/21 03:05:30;;;;;;;4.03;2.80;;;12.80;99.90;;;11.31;97.92;101455.03;2568625;30;137482;-39
2021/08/21 03:08:00;;;;;;;5.43;3.03;;;12.80;99.90;;;11.31;97.99;101461.31;2571770;30;140746;-39
2021/08/21 03:10:28;;;;;;;4.78;2.80;;;12.80;99.90;;;11.28;97.71;101460.91;2567470;30;137444;-39
2021/08/21 03:13:00;;;;;;;4.82;3.15;;;12.80;99.90;;;11.28;97.85;101458.97;2568605;30;140490;-39
2021/08/21 03:15:30;;;;;;;5.70;3.40;;;12.80;99.90;;;11.29;98.05;101457.13;2566164;30;139274;-39
2021/08/21 03:17:59;;;;;;;4.88;3.17;;;12.80;99.90;;;11.29;98.22;101466.13;2567643;30;138329;-39
2021/08/21 03:20:27;;;;;;;5.28;2.83;;;12.80;99.90;;;11.28;98.14;101472.66;2569313;30;139048;-39
2021/08/21 03:22:55;;;;;;;5.82;3.78;;;12.70;99.90;;;11.29;98.25;101468.03;2567975;30;137748;-39
2021/08/21 03:25:26;;;;;;;5.63;3.58;;;12.80;99.90;;;11.30;98.40;101467.81;2569041;30;138970;-40
2021/08/21 03:27:54;;;;;;;5.75;3.42;;;12.80;99.90;;;11.30;98.63;101467.81;2569924;30;139214;-39
2021/08/21 03:30:22;;;;;;;5.45;3.42;;;12.80;99.90;;;11.32;98.74;101465.72;2569644;30;137528;-39
2021/08/21 03:33:01;;;;;;;5.18;3.33;;;12.80;99.90;;;11.34;99.00;101465.53;2569408;30;137195;-39
2021/08/21 03:35:29;;;;;;;6.25;3.38;;;12.80;99.90;;;11.32;99.05;101463.00;2569311;30;138660;-41
2021/08/21 03:37:57;;;;;;;5.07;3.67;;;12.80;99.90;;;11.36;99.00;101469.75;2567528;30;138604;-39
2021/08/21 03:40:25;;;;;;;7.03;3.88;;;12.80;99.90;;;11.36;99.31;101467.00;2569717;30;138637;-40
2021/08/21 03:43:07;;;;;;;5.22;3.80;;;12.80;99.90;;;11.40;99.30;101469.34;2569832;30;137482;-39
2021/08/21 03:45:36;;;;;;;5.00;3.35;;;12.90;99.90;;;11.44;99.39;101467.91;2567964;30;138851;-39
2021/08/21 03:48:04;;;;;;;6.15;3.90;;;12.90;99.90;;;11.52;99.97;101462.25;2569291;30;140660;-39
2021/08/21 03:50:31;;;;;;;6.85;4.63;;;12.90;99.90;;;11.59;100.00;101457.66;2567293;30;140230;-41
2021/08/21 03:52:59;;;;;;;6.70;4.30;;;13.00;99.90;;;11.68;100.00;101462.97;2569772;30;139096;-40
2021/08/21 03:55:28;;;;;;;8.85;4.50;;;13.10;99.90;;;11.74;100.00;101462.97;2567832;30;139152;-39
2021/08/21 03:57:58;;;;;;;8.63;4.97;;;13.10;99.90;;;11.83;100.00;101468.28;2566677;30;141109;-39
2021/08/21 04:00:27;;;;;;;9.52;5.72;;;13.20;99.90;;;11.92;100.00;101467.03;2569256;30;139392;-39
2021/08/21 04:03:05;;;;;;;9.32;5.90;;;13.30;99.90;;;12.03;100.00;101468.34;2569500;30;138439;-39
2021/08/21 04:05:34;;;;;;;11.40;6.63;;;13.40;99.90;;;12.14;100.00;101461.44;2566269;30;139832;-39
2021/08/21 04:08:03;;;;;;;11.57;6.20;;;13.50;99.90;;;12.25;100.00;101466.28;2568838;30;138522;-40
2021/08/21 04:10:30;;;;;;;11.50;6.70;;;13.60;99.90;;;12.34;100.00;101466.94;2568815;30;138889;-39
2021/08/21 04:13:00;;;;;;;12.02;6.88;;;13.70;99.90;;;12.42;100.00;101460.44;2569595;30;140735;-40
2021/08/21 04:15:29;;;;;;;;;;;13.80;99.90;;;12.49;100.00;101456.66;2569461;30;138982;-39
2021/08/21 04:17:57;;;;;;;13.13;7.67;;;13.80;99.90;;;12.59;100.00;101466.31;2568780;30;139541;-39
2021/08/21 04:20:25;;;;;;;12.70;6.82;;;13.90;99.90;;;12.68;100.00;101466.97;2569622;30;139063;-39
2021/08/21 04:22:53;;;;;;;;;;;14.00;99.90;;;12.75;100.00;101459.59;2567434;30;138748;-39
2021/08/21 04:25:20;;;;;;;10.75;6.72;;;14.10;99.90;;;12.81;100.00;101464.19;2570602;30;137122;-39
2021/08/21 04:27:53;;;;;;;12.13;7.68;;;14.10;99.90;;;12.93;100.00;101459.78;2567722;30;139226;-39
2021/08/21 04:30:22;;;;;;;12.52;7.95;;;14.20;99.90;;;13.01;100.00;101461.47;2568671;30;137751;-39
2021/08/21 04:32:50;;;;;;;12.27;7.78;;;14.30;99.90;;;13.08;100.00;101455.94;2568426;30;140576;-40
2021/08/21 04:35:21;;;;;;;12.70;8.27;;;14.40;99.90;;;13.15;100.00;101459.53;2569141;30;137445;-39
2021/08/21 04:37:51;;;;;;;11.23;7.28;;;14.50;99.90;;;13.20;100.00;101464.34;2568816;30;137323;-39
2021/08/21 04:40:21;;;;;;;12.30;8.35;;;14.50;99.90;;;13.26;100.00;101459.91;2569778;30;137895;-39
2021/08/21 04:42:53;;;;;;;13.13;8.02;;;14.60;99.90;;;13.34;100.00;101459.69;2569132;30;138583;-39
2021/08/21 04:45:20;;;;;;;14.73;8.15;;;14.60;99.90;;;13.38;100.00;101460.94;2569981;30;139060;-39
2021/08/21 04:47:48;;;;;;;10.82;7.00;;;14.70;99.90;;;13.41;100.00;101456.91;2569238;30;138895;-39
2021/08/21 04:50:17;;;;;;;12.68;7.50;;;14.70;99.90;;;13.47;100.00;101462.41;2567036;30;139310;-40
2021/08/21 04:52:45;;;;;;;11.48;7.50;;;14.80;99.90;;;13.51;100.00;101471.03;2568899;30;138433;-39
2021/08/21 04:55:13;;;;;;;11.85;6.90;;;14.90;99.90;;;13.57;100.00;101469.34;2569192;30;139352;-39
2021/08/21 04:57:41;;;;;;;11.38;6.53;;;14.90;99.90;;;13.61;100.00;101468.69;2569734;30;140077;-39
2021/08/21 05:00:09;;;;;;;14.85;7.88;;;14.90;99.90;;;13.69;100.00;101469.50;2568671;30;140013;-40
2021/08/21 05:02:58;;;;;;;10.95;6.45;;;15.00;99.90;;;13.74;100.00;101470.53;2570089;30;136952;-39
2021/08/21 05:05:28;;;;;;;10.65;6.90;;;15.00;99.90;;;13.79;100.00;101469.84;2570237;30;137617;-40
2021/08/21 05:07:58;;;;;;;11.55;6.78;;;15.10;99.90;;;13.83;100.00;101471.13;2569352;30;139411;-39
2021/08/21 05:10:25;;;;;;;;;;;15.10;99.90;;;13.89;100.00;101474.88;2569378;30;139075;-40
2021/08/21 05:12:53;;;;;;;9.65;6.18;;;15.10;99.90;;;13.94;100.00;101478.66;2566321;30;139726;-39
2021/08/21 05:15:21;;;;;;;;;;;15.20;99.90;;;13.99;100.00;101474.41;2568971;30;137562;-39
2021/08/21 05:18:11;;;;;;;10.80;6.65;;;15.20;99.90;;;14.04;100.00;101472.69;2570781;30;136990;-39
2021/08/21 05:20:51;;;;;;;11.18;7.22;;;15.30;99.90;;;14.13;100.00;101472.44;2568745;30;139888;-40
2021/08/21 05:23:20;;;;;;;11.48;7.47;;;15.40;99.90;;;14.17;100.00;101466.28;2568992;30;138383;-39
2021/08/21 05:25:48;;;;;;;9.70;6.80;;;15.40;99.90;;;14.22;100.00;101468.38;2568258;30;139734;-39
2021/08/21 05:28:18;;;;;;;12.18;7.32;;;15.50;99.90;;;14.27;100.00;101470.44;2566984;30;138732;-39
2021/08/21 05:30:49;;;;;;;10.52;7.07;;;15.50;99.90;;;14.30;100.00;101462.63;2569129;30;139130;-39
2021/08/21 05:33:18;;;;;;;12.98;6.93;;;15.50;99.90;;;14.33;100.00;101462.16;2567964;30;140331;-39
2021/08/21 05:35:49;;;;;;;12.30;7.50;;;15.60;99.90;;;14.38;100.00;101464.25;2567787;30;137077;-39
2021/08/21 05:38:17;;;;;;;13.55;7.90;;;15.60;99.90;;;14.45;100.00;101462.28;2569965;30;138703;-40
2021/08/21 05:40:45;;;;;;;10.25;7.10;;;15.70;99.90;;;14.52;100.00;101468.56;2569267;30;137524;-39
2021/08/21 05:43:13;;;;;;;;;;;15.80;99.90;;;14.60;100.00;101469.38;2566939;30;138627;-39
2021/08/21 05:45:40;;;;;;;9.70;6.95;;;15.80;99.90;;;14.67;100.00;101475.63;2569110;30;137340;-39
2021/08/21 05:48:08;;;;;;;12.93;7.88;;;15.80;99.90;;;14.76;100.00;101478.97;2568450;30;137298;-39
2021/08/21 05:50:35;;;;;;;;;;;15.90;99.90;;;14.80;100.00;101467.31;2570466;30;138217;-40
2021/08/21 05:53:03;;;;;;;9.70;6.72;;;16.00;99.90;;;14.89;100.00;101478.03;2569388;30;138569;-39
2021/08/21 05:55:32;;;;;;;11.20;7.40;;;16.00;99.90;;;14.93;100.00;101473.75;2567224;30;137756;-40
2021/08/21 05:58:04;;;;;;;11.00;7.47;;;16.10;99.90;;;15.01;100.00;101470.72;2568416;30;139919;-39
2021/08/21 06:00:34;;;;;;;10.23;6.72;;;16.20;99.90;;;15.06;100.00;101478.28;2568583;30;136816;-40
2021/08/21 06:03:03;;;;;;;10.35;7.13;;;16.20;99.90;;;15.12;100.00;101479.25;2568728;30;138495;-39
2021/08/21 06:05:31;;;;;;;10.02;6.85;;;16.30;99.90;;;15.17;100.00;101477.53;2566467;30;137377;-39
2021/08/21 06:08:03;;;;;;;10.82;7.30;;;16.30;99.90;;;15.24;100.00;101483.78;2570137;30;137363;-39
2021/08/21 06:10:33;;;;;;;12.48;7.43;;;16.40;99.90;;;15.30;99.66;101476.53;2570347;30;138963;-39
2021/08/21 06:13:02;;;;;;;12.02;6.95;;;16.40;99.90;;;15.38;99.39;101481.75;2568580;30;140223;-40
2021/08/21 06:15:30;;;;;;;11.82;6.93;;;16.50;99.90;;;15.50;98.47;101490.03;2569972;30;137156;-39
2021/08/21 06:17:57;;;;;;;11.98;7.22;;;16.60;99.90;;;15.57;97.58;101489.16;2568132;30;138297;-39
2021/08/21 06:20:25;;;;;;;9.27;6.75;;;16.70;99.90;;;15.65;97.50;101484.19;2568995;30;137308;-39
2021/08/21 06:22:52;;;;;;;9.18;6.07;;;16.70;99.90;;;15.74;97.46;101494.88;2569231;30;136769;-40
2021/08/21 06:25:20;;;;;;;9.70;6.00;;;16.80;99.90;;;15.75;96.28;101491.88;2569710;30;137638;-40
2021/08/21 06:27:49;;;;;;;10.30;6.57;;;16.80;99.90;;;15.82;96.07;101492.66;2568120;30;138502;-39
2021/08/21 06:30:17;;;;;;;11.80;6.93;;;16.90;99.90;;;15.84;95.43;101495.16;2568606;30;136645;-40
2021/08/21 06:32:44;;;;;;;10.50;6.15;;;16.90;99.90;;;15.89;95.20;101494.50;2569788;30;138806;-39
2021/08/21 06:35:12;;;;;;;10.35;6.25;;;17.00;99.90;;;15.89;95.42;101487.06;2569288;30;136845;-40
2021/08/21 06:37:39;;;;;;;9.90;6.57;;;17.00;99.90;;;15.93;94.76;101488.31;2570315;30;137363;-40
2021/08/21 06:40:08;;;;;;;10.73;6.72;;;17.10;99.90;;;15.95;95.77;101486.16;2568813;30;137530;-39
2021/08/21 06:42:35;;;;;;;10.73;6.60;;;17.10;99.90;;;16.05;95.15;101487.50;2568178;30;138550;-39
2021/08/21 06:45:18;;;;;;;9.73;6.53;;;17.20;99.90;;;16.07;93.70;101488.09;2569648;30;140031;-39
2021/08/21 06:47:46;;;;;;;9.15;6.13;;;17.20;99.90;;;16.19;93.95;101485.41;2568067;30;138496;-39
2021/08/21 06:50:14;;;;;;;7.90;5.68;;;17.20;99.90;;;16.33;93.64;101486.03;2569913;30;137124;-39
2021/08/21 06:52:41;;;;;;;;;;;17.40;99.90;;;16.51;92.93;101487.88;2569517;30;137220;-39
2021/08/21 06:55:09;;;;;;;8.38;6.18;;;17.40;99.90;;;16.70;92.88;101487.78;2566142;30;137403;-40
2021/08/21 06:57:49;;;;;;;9.55;5.70;;;17.60;99.90;;;16.95;90.68;101482.91;2568777;30;137482;-40
2021/08/21 07:00:17;;;;;;;;;;;17.80;99.90;;;17.09;89.05;101483.53;2568077;30;137596;-40
2021/08/21 07:02:45;;;;;;;9.32;5.78;;;18.00;99.90;;;17.27;88.98;101483.63;2568346;30;139195;-39
2021/08/21 07:05:12;;;;;;;8.82;5.88;;;18.10;99.90;;;17.36;87.84;101483.03;2568381;30;138951;-39
2021/08/21 07:07:40;;;;;;;9.35;5.78;;;18.20;99.90;;;17.57;87.75;101485.38;2569277;30;138292;-40
2021/08/21 07:10:08;;;;;;;10.50;5.65;;;18.40;99.90;;;17.72;86.80;101491.22;2569409;30;137714;-40
2021/08/21 07:12:36;;;;;;;9.00;5.43;;;18.60;99.90;;;17.91;86.03;101482.75;2569124;30;138403;-40
2021/08/21 07:15:04;;;;;;;9.23;5.53;;;18.70;99.90;;;18.10;85.96;101480.66;2568717;30;137003;-39
2021/08/21 07:17:31;;;;;;;8.77;4.78;;;18.90;99.90;;;18.34;85.08;101475.03;2567835;30;139027;-40
2021/08/21 07:19:59;;;;;;;7.55;4.90;;;19.10;99.90;;;18.46;83.61;101483.25;2566271;30;136806;-40
2021/08/21 07:22:27;;;;;;;9.45;5.63;;;19.20;99.90;;;18.61;81.87;101479.91;2569134;30;138080;-40
2021/08/21 07:24:54;;;;;;;;;;;19.40;99.90;;;18.80;82.41;101480.47;2569097;30;137582;-40
2021/08/21 07:27:22;;;;;;;7.03;4.80;;;19.50;99.90;;;18.99;82.16;101483.84;2568344;30;137271;-40
2021/08/21 07:29:49;;;;;;;7.90;5.28;;;19.70;99.90;;;19.06;78.78;101465.13;2567170;30;136903;-40
2021/08/21 07:32:17;;;;;;;9.18;4.72;;;19.80;99.90;;;19.30;78.67;101477.91;2568632;30;138290;-40
2021/08/21 07:34:44;;;;;;;9.07;4.57;;;20.00;99.90;;;19.35;78.21;101473.28;2569924;30;137398;-40
2021/08/21 07:37:12;;;;;;;8.07;4.55;;;20.10;99.90;;;19.40;77.37;101467.81;2568985;30;138665;-40
2021/08/21 07:39:39;;;;;;;;;;;20.10;99.90;;;19.44;78.63;101473.66;2569239;30;137113;-40
2021/08/21 07:42:07;;;;;;;7.53;4.05;;;20.20;99.90;;;19.63;78.54;101473.34;2568534;30;137232;-40
2021/08/21 07:44:35;;;;;;;;;;;20.30;99.90;;;19.79;78.84;101479.91;2569512;30;137014;-40
2021/08/21 07:47:03;;;;;;;7.90;4.35;;;20.50;99.90;;;19.73;74.63;101478.19;2566685;30;138758;-40
2021/08/21 07:49:30;;;;;;;9.07;4.85;;;20.50;99.90;;;19.81;74.42;101478.56;2566709;30;137914;-40
2021/08/21 07:51:58;;;;;;;5.95;4.30;;;20.60;99.90;;;19.93;73.52;101478.44;2569268;30;137565;-39
2021/08/21 07:54:26;;;;;;;;;;;20.70;99.90;;;19.93;74.53;101478.44;2568662;30;138009;-40
2021/08/21 07:56:53;;;;;;;5.88;4.10;;;20.70;99.90;;;20.10;75.57;101486.66;2567796;30;138505;-40
2021/08/21 07:59:21;;;;;;;6.10;4.18;;;20.80;99.90;;;20.07;72.02;101484.41;2568850;30;137474;-40
2021/08/21 08:01:48;;;;;;;5.75;3.88;;;20.80;99.90;;;20.25;74.31;101491.50;2569033;30;137606;-40
2021/08/21 08:04:16;;;;;;;6.05;4.15;;;21.00;99.90;;;20.45;75.03;101487.28;2567880;30;137423;-40
2021/08/21 08:06:43;;;;;;;7.43;4.72;;;21.10;99.90;;;20.53;71.48;101488.72;2566279;30;137359;-39
2021/08/21 08:09:11;;;;;;;5.82;3.60;;;21.20;99.90;;;20.60;72.54;101494.03;2568307;30;136850;-41
2021/08/21 08:11:38;;;;;;;6.65;4.13;;;21.30;99.90;;;20.69;70.58;101489.69;2568833;30;137306;-39
2021/08/21 08:14:06;;;;;;;8.02;4.28;;;21.30;99.90;;;20.58;71.76;101490.69;2567708;30;138113;-40
2021/08/21 08:16:33;;;;;;;;;;;21.30;99.90;;;20.78;71.55;101490.88;2568950;30;139054;-40
2021/08/21 08:19:01;;;;;;;5.50;3.50;;;21.50;99.90;;;20.91;71.85;101488.75;2567586;30;139301;-40
2021/08/21 08:21:29;;;;;;;7.25;4.07;;;21.60;99.90;;;20.93;70.48;101487.41;2570071;30;137258;-40
2021/08/21 08:23:57;;;;;;;7.18;4.55;;;21.70;99.90;;;20.94;69.55;101497.38;2567075;30;137359;-39
2021/08/21 08:26:25;;;;;;;9.40;3.78;;;21.70;99.90;;;21.11;70.83;101491.66;2567938;30;138962;-39
2021/08/21 08:28:53;;;;;;;6.15;3.92;;;21.80;99.90;;;21.22;67.71;101488.97;2569825;30;137464;-39
2021/08/21 08:31:21;;;;;;;6.80;4.00;;;21.90;99.90;;;21.30;68.65;101491.25;2568042;30;138517;-40
2021/08/21 08:33:48;;;;;;;8.38;4.57;;;21.90;99.90;;;21.39;69.18;101486.84;2567096;30;136657;-40
2021/08/21 08:36:16;;;;;;;;;;;22.00;99.90;;;21.56;68.69;101485.81;2567650;30;137380;-40
2021/08/21 08:38:43;;;;;;;7.68;3.72;;;22.20;99.90;;;21.69;67.60;101482.53;2570009;30;136856;-40
2021/08/21 08:41:12;;;;;;;7.65;4.22;;;22.30;99.90;;;21.69;67.05;101490.88;2567146;30;138632;-40
2021/08/21 08:43:42;;;;;;;7.47;4.18;;;22.40;99.90;;;21.90;67.17;101493.72;2567050;30;138632;-40
2021/08/21 08:46:10;;;;;;;5.97;3.40;;;22.50;99.90;;;22.19;66.18;101493.25;2567754;30;137634;-40
2021/08/21 08:48:39;;;;;;;;;;;22.70;99.90;;;22.30;66.93;101493.28;2568214;30;137632;-40
2021/08/21 08:51:08;;;;;;;5.80;3.72;;;22.90;99.90;;;22.29;66.56;101486.06;2569243;30;138072;-39
2021/08/21 08:53:35;;;;;;;7.20;3.97;;;23.00;99.90;;;22.19;64.14;101497.97;2567600;30;136699;-39
2021/08/21 08:56:04;;;;;;;;;;;22.90;99.90;;;22.17;65.46;101495.47;2568252;30;138221;-42
2021/08/21 08:58:32;;;;;;;6.30;3.40;;;22.90;99.90;;;22.28;68.10;101499.09;2568177;30;137971;-40
2021/08/21 09:00:59;;;;;;;;;;;23.00;99.90;;;22.21;65.15;101499.34;2568822;30;137386;-41
2021/08/21 09:03:28;;;;;;;6.55;3.28;;;23.00;99.90;;;22.27;65.66;101498.25;2567980;30;136878;-40
2021/08/21 09:05:56;;;;;;;6.15;3.67;;;23.00;99.90;;;22.16;64.38;101506.88;2568703;30;137124;-40
2021/08/21 09:08:28;;;;;;;;;;;23.00;99.90;;;22.40;65.84;101502.44;2566617;30;137541;-40
2021/08/21 09:11:17;;;;;;;7.13;3.60;;;23.10;99.90;;;22.61;64.64;101498.88;2569347;30;137388;-41
2021/08/21 09:13:44;;;;;;;5.13;3.38;;;23.30;99.90;;;22.58;62.88;101505.00;2568545;30;137440;-40
2021/08/21 09:16:23;;;;;;;;;;;23.30;99.90;;;22.70;66.22;101495.28;2568198;30;138462;-42
2021/08/21 09:19:04;;;;;;;6.10;3.50;;;23.40;99.90;;;22.79;64.49;101494.69;2567938;30;136968;-40
2021/08/21 09:21:34;;;;;;;6.95;3.45;;;23.50;99.90;;;22.81;64.72;101481.34;2567945;30;137494;-40
2021/08/21 09:24:24;;;;;;;4.15;3.00;;;23.50;99.90;;;22.87;63.29;101488.56;2568239;30;138284;-40
2021/08/21 09:26:52;;;;;;;5.70;3.17;;;23.60;99.90;;;22.99;63.32;101472.41;2567669;30;137715;-40
2021/08/21 09:29:27;;;;;;;4.10;2.40;;;23.70;99.90;;;23.25;64.53;101482.69;2566050;30;136709;-40
2021/08/21 09:32:06;;;;;;;7.38;2.90;;;23.80;99.90;;;23.44;61.88;101482.06;2565862;30;138115;-38
2021/08/21 09:34:35;;;;;;;4.70;2.92;;;24.00;99.90;;;23.30;61.54;101482.66;2568174;30;137736;-40
2021/08/21 09:37:03;;;;;;;4.90;2.78;;;24.00;99.90;;;23.44;61.62;101482.06;2567422;30;137494;-39
2021/08/21 09:39:41;;;;;;;4.78;2.53;;;24.10;99.90;;;23.56;61.37;101474.22;2567827;30;137755;-40
2021/08/21 09:42:10;;;;;;;;;;;24.20;99.90;;;23.49;58.90;101468.13;2568318;30;137330;-40
2021/08/21 09:44:42;;;;;;;4.15;2.58;;;24.20;99.90;;;23.65;62.11;101475.31;2567967;30;137439;-40
2021/08/21 09:47:13;;;;;;;4.97;2.50;;;24.30;99.90;;;23.61;59.85;101476.16;2568887;30;139092;-41
2021/08/21 09:49:43;;;;;;;4.03;1.88;;;24.20;99.90;;;23.57;60.12;101467.53;2566974;30;137470;-42
2021/08/21 09:52:15;;;;;;;3.20;1.80;;;24.20;99.90;;;23.76;58.81;101473.31;2567834;30;139206;-40
2021/08/21 09:55:02;;;;;;;4.30;2.03;;;24.40;99.90;;;23.77;58.80;101471.34;2568300;30;137769;-40
2021/08/21 09:57:31;;;;;;;6.23;2.00;;;24.40;99.90;;;23.85;57.14;101471.56;2567670;30;137928;-40
2021/08/21 10:00:01;;;;;;;4.90;1.80;;;24.50;99.90;;;24.03;55.48;101471.22;2566721;30;137446;-39
2021/08/21 10:02:44;;;;;;;3.75;1.65;;;24.60;99.90;;;24.13;57.45;101463.63;2566639;30;137530;-39
2021/08/21 10:05:11;;;;;;;5.28;1.90;;;24.70;99.90;;;23.83;57.31;101467.38;2568796;30;137346;-39
2021/08/21 10:07:44;;;;;;;;;;;24.70;99.90;;;23.99;56.66;101466.19;2566317;30;136954;-40
2021/08/21 10:10:16;;;;;;;3.15;2.05;;;24.70;99.90;;;24.05;55.85;101471.75;2569818;30;137050;-40
2021/08/21 10:12:46;;;;;;;2.90;1.60;;;24.70;99.90;;;24.09;55.87;101458.91;2567900;30;138457;-40
2021/08/21 10:15:14;;;;;;;2.55;1.50;;;24.80;99.90;;;24.22;55.98;101463.00;2567933;30;136769;-40
2021/08/21 10:17:44;;;;;;;3.78;1.77;;;24.90;99.90;;;24.21;55.03;101462.19;2567123;30;139347;-39
2021/08/21 10:20:13;;;;;;;4.70;2.00;;;24.90;99.90;;;24.10;55.61;101455.84;2566751;30;138434;-40